sensor_id;sensor_type;location;lat;lon;timestamp;pressure;altitude;pressure_sealevel;temperature;humidity
73860;BME280;62197;51.632;13.700;2023-06-05T00:00:22;100718.75;;;10.68;68.26
73860;BME280;62197;51.632;13.700;2023-06-05T00:02:48;100728.22;;;10.60;68.17
73860;BME280;62197;51.632;13.700;2023-06-05T00:05:13;100721.81;;;10.48;69.23
73860;BME280;62197;51.632;13.700;2023-06-05T00:07:41;100716.75;;;10.45;69.76
73860;BME280;62197;51.632;13.700;2023-06-05T00:10:07;100716.56;;;10.29;70.58
73860;BME280;62197;51.632;13.700;2023-06-05T00:12:33;100716.19;;;10.25;71.20
73860;BME280;62197;51.632;13.700;2023-06-05T00:14:59;100717.50;;;10.23;71.60
73860;BME280;62197;51.632;13.700;2023-06-05T00:17:24;100724.41;;;10.14;71.97
73860;BME280;62197;51.632;13.700;2023-06-05T00:19:50;100719.88;;;10.01;72.03
73860;BME280;62197;51.632;13.700;2023-06-05T00:22:15;100712.75;;;9.93;72.71
73860;BME280;62197;51.632;13.700;2023-06-05T00:24:40;100721.41;;;9.97;71.92
73860;BME280;62197;51.632;13.700;2023-06-05T00:27:06;100721.75;;;9.89;72.60
73860;BME280;62197;51.632;13.700;2023-06-05T00:29:31;100719.31;;;9.81;74.32
73860;BME280;62197;51.632;13.700;2023-06-05T00:31:56;100716.84;;;9.73;74.93
73860;BME280;62197;51.632;13.700;2023-06-05T00:34:21;100707.72;;;9.72;74.62
73860;BME280;62197;51.632;13.700;2023-06-05T00:36:47;100713.41;;;9.77;74.34
73860;BME280;62197;51.632;13.700;2023-06-05T00:39:16;100708.56;;;9.73;73.84
73860;BME280;62197;51.632;13.700;2023-06-05T00:41:41;100704.97;;;9.72;73.87
73860;BME280;62197;51.632;13.700;2023-06-05T00:44:07;100709.25;;;9.68;73.36
73860;BME280;62197;51.632;13.700;2023-06-05T00:46:33;100707.03;;;9.59;73.46
73860;BME280;62197;51.632;13.700;2023-06-05T00:48:58;100707.94;;;9.53;74.28
73860;BME280;62197;51.632;13.700;2023-06-05T00:51:24;100707.94;;;9.53;74.56
73860;BME280;62197;51.632;13.700;2023-06-05T00:53:50;100705.91;;;9.48;74.48
73860;BME280;62197;51.632;13.700;2023-06-05T00:56:15;100706.19;;;9.40;75.01
73860;BME280;62197;51.632;13.700;2023-06-05T00:58:42;100706.88;;;9.36;75.91
73860;BME280;62197;51.632;13.700;2023-06-05T01:01:09;100698.22;;;9.32;76.31
73860;BME280;62197;51.632;13.700;2023-06-05T01:03:35;100707.50;;;9.38;76.36
73860;BME280;62197;51.632;13.700;2023-06-05T01:06:01;100701.06;;;9.44;75.73
73860;BME280;62197;51.632;13.700;2023-06-05T01:08:34;100700.16;;;9.50;75.25
73860;BME280;62197;51.632;13.700;2023-06-05T01:11:32;100691.66;;;9.51;73.95
73860;BME280;62197;51.632;13.700;2023-06-05T01:16:27;100702.31;;;9.48;74.87
73860;BME280;62197;51.632;13.700;2023-06-05T01:18:56;100705.06;;;9.48;74.79
73860;BME280;62197;51.632;13.700;2023-06-05T01:21:27;100700.47;;;9.42;74.98
73860;BME280;62197;51.632;13.700;2023-06-05T01:23:52;100704.81;;;9.49;75.35
73860;BME280;62197;51.632;13.700;2023-06-05T01:26:18;100707.94;;;9.53;75.87
73860;BME280;62197;51.632;13.700;2023-06-05T01:28:47;100697.63;;;9.48;75.82
73860;BME280;62197;51.632;13.700;2023-06-05T01:31:17;100704.97;;;9.36;75.80
73860;BME280;62197;51.632;13.700;2023-06-05T01:36:15;100690.13;;;9.19;77.51
73860;BME280;62197;51.632;13.700;2023-06-05T01:38:42;100686.19;;;9.08;79.42
73860;BME280;62197;51.632;13.700;2023-06-05T01:41:10;100691.34;;;8.98;80.01
73860;BME280;62197;51.632;13.700;2023-06-05T01:43:37;100682.94;;;8.93;80.30
73860;BME280;62197;51.632;13.700;2023-06-05T01:46:04;100682.59;;;8.83;80.93
73860;BME280;62197;51.632;13.700;2023-06-05T01:48:33;100690.44;;;8.86;80.52
73860;BME280;62197;51.632;13.700;2023-06-05T01:50:59;100689.34;;;8.87;80.58
73860;BME280;62197;51.632;13.700;2023-06-05T01:53:28;100678.34;;;8.87;80.05
73860;BME280;62197;51.632;13.700;2023-06-05T01:55:54;100676.19;;;8.89;79.41
73860;BME280;62197;51.632;13.700;2023-06-05T01:58:25;100676.66;;;8.86;80.04
73860;BME280;62197;51.632;13.700;2023-06-05T02:00:51;100683.88;;;8.81;80.44
73860;BME280;62197;51.632;13.700;2023-06-05T02:03:17;100689.84;;;8.78;80.60
73860;BME280;62197;51.632;13.700;2023-06-05T02:05:43;100677.16;;;8.77;80.93
73860;BME280;62197;51.632;13.700;2023-06-05T02:08:08;100685.91;;;8.67;81.35
73860;BME280;62197;51.632;13.700;2023-06-05T02:10:35;100678.16;;;8.58;81.86
73860;BME280;62197;51.632;13.700;2023-06-05T02:13:02;100679.66;;;8.54;82.98
73860;BME280;62197;51.632;13.700;2023-06-05T02:15:28;100677.09;;;8.59;82.83
73860;BME280;62197;51.632;13.700;2023-06-05T02:17:57;100670.59;;;8.53;83.20
73860;BME280;62197;51.632;13.700;2023-06-05T02:20:24;100672.72;;;8.51;82.68
73860;BME280;62197;51.632;13.700;2023-06-05T02:22:50;100669.09;;;8.57;81.91
73860;BME280;62197;51.632;13.700;2023-06-05T02:25:17;100668.22;;;8.57;81.08
73860;BME280;62197;51.632;13.700;2023-06-05T02:27:42;100676.03;;;8.60;80.68
73860;BME280;62197;51.632;13.700;2023-06-05T02:30:08;100670.13;;;8.56;81.20
73860;BME280;62197;51.632;13.700;2023-06-05T02:32:33;100669.69;;;8.59;81.37
73860;BME280;62197;51.632;13.700;2023-06-05T02:34:59;100663.97;;;8.61;80.66
73860;BME280;62197;51.632;13.700;2023-06-05T02:37:24;100663.28;;;8.65;78.75
73860;BME280;62197;51.632;13.700;2023-06-05T02:39:51;100670.44;;;8.73;78.13
73860;BME280;62197;51.632;13.700;2023-06-05T02:42:17;100675.25;;;8.77;78.27
73860;BME280;62197;51.632;13.700;2023-06-05T02:44:44;100679.34;;;8.68;79.04
73860;BME280;62197;51.632;13.700;2023-06-05T02:47:09;100678.13;;;8.64;79.15
73860;BME280;62197;51.632;13.700;2023-06-05T02:49:35;100676.03;;;8.60;79.52
73860;BME280;62197;51.632;13.700;2023-06-05T02:52:00;100681.13;;;8.56;80.31
73860;BME280;62197;51.632;13.700;2023-06-05T02:54:26;100676.41;;;8.63;78.43
73860;BME280;62197;51.632;13.700;2023-06-05T02:56:53;100672.97;;;8.74;78.31
73860;BME280;62197;51.632;13.700;2023-06-05T02:59:19;100685.34;;;8.83;78.05
73860;BME280;62197;51.632;13.700;2023-06-05T03:01:50;100683.44;;;8.84;77.77
73860;BME280;62197;51.632;13.700;2023-06-05T03:04:15;100676.88;;;8.85;77.94
73860;BME280;62197;51.632;13.700;2023-06-05T03:06:49;100683.06;;;8.80;78.09
73860;BME280;62197;51.632;13.700;2023-06-05T03:09:15;100691.13;;;8.75;78.50
73860;BME280;62197;51.632;13.700;2023-06-05T03:11:41;100691.22;;;8.69;79.80
73860;BME280;62197;51.632;13.700;2023-06-05T03:14:06;100682.59;;;8.59;80.40
73860;BME280;62197;51.632;13.700;2023-06-05T03:16:31;100683.88;;;8.56;80.41
73860;BME280;62197;51.632;13.700;2023-06-05T03:19:03;100676.09;;;8.53;81.33
73860;BME280;62197;51.632;13.700;2023-06-05T03:21:28;100682.22;;;8.55;80.46
73860;BME280;62197;51.632;13.700;2023-06-05T03:23:53;100682.03;;;8.50;81.70
73860;BME280;62197;51.632;13.700;2023-06-05T03:26:18;100682.00;;;8.57;81.20
73860;BME280;62197;51.632;13.700;2023-06-05T03:28:44;100681.31;;;8.61;80.72
73860;BME280;62197;51.632;13.700;2023-06-05T03:31:09;100683.63;;;8.64;81.17
73860;BME280;62197;51.632;13.700;2023-06-05T03:33:35;100680.97;;;8.76;80.81
73860;BME280;62197;51.632;13.700;2023-06-05T03:36:00;100675.97;;;8.91;80.84
73860;BME280;62197;51.632;13.700;2023-06-05T03:38:26;100666.84;;;8.90;80.11
73860;BME280;62197;51.632;13.700;2023-06-05T03:40:51;100681.63;;;9.21;82.74
73860;BME280;62197;51.632;13.700;2023-06-05T03:43:16;100677.50;;;9.30;80.83
73860;BME280;62197;51.632;13.700;2023-06-05T03:45:42;100688.97;;;9.27;80.13
73860;BME280;62197;51.632;13.700;2023-06-05T03:48:07;100682.47;;;9.39;79.44
73860;BME280;62197;51.632;13.700;2023-06-05T03:50:34;100679.19;;;9.49;78.88
73860;BME280;62197;51.632;13.700;2023-06-05T03:53:02;100680.88;;;9.50;78.94
73860;BME280;62197;51.632;13.700;2023-06-05T03:55:32;100675.50;;;9.55;79.75
73860;BME280;62197;51.632;13.700;2023-06-05T03:58:07;100677.09;;;9.62;79.24
73860;BME280;62197;51.632;13.700;2023-06-05T04:00:33;100672.81;;;9.66;78.31
73860;BME280;62197;51.632;13.700;2023-06-05T04:02:58;100671.47;;;9.75;77.27
73860;BME280;62197;51.632;13.700;2023-06-05T04:05:24;100673.06;;;9.83;77.14
73860;BME280;62197;51.632;13.700;2023-06-05T04:07:49;100678.00;;;9.92;77.61
73860;BME280;62197;51.632;13.700;2023-06-05T04:10:15;100679.59;;;10.00;77.14
73860;BME280;62197;51.632;13.700;2023-06-05T04:12:40;100673.56;;;10.10;76.87
73860;BME280;62197;51.632;13.700;2023-06-05T04:15:06;100678.03;;;10.22;76.05
73860;BME280;62197;51.632;13.700;2023-06-05T04:17:32;100684.19;;;10.36;76.50
73860;BME280;62197;51.632;13.700;2023-06-05T04:19:57;100686.38;;;10.45;75.91
73860;BME280;62197;51.632;13.700;2023-06-05T04:22:22;100680.44;;;10.60;74.71
73860;BME280;62197;51.632;13.700;2023-06-05T04:24:47;100678.66;;;10.65;74.61
73860;BME280;62197;51.632;13.700;2023-06-05T04:27:13;100681.91;;;10.74;75.32
73860;BME280;62197;51.632;13.700;2023-06-05T04:29:39;100680.84;;;10.86;72.62
73860;BME280;62197;51.632;13.700;2023-06-05T04:32:05;100683.00;;;10.96;72.64
73860;BME280;62197;51.632;13.700;2023-06-05T04:34:32;100690.00;;;11.10;71.93
73860;BME280;62197;51.632;13.700;2023-06-05T04:36:57;100686.63;;;11.20;72.39
73860;BME280;62197;51.632;13.700;2023-06-05T04:39:23;100686.38;;;11.33;71.57
73860;BME280;62197;51.632;13.700;2023-06-05T04:41:48;100687.13;;;11.40;70.71
73860;BME280;62197;51.632;13.700;2023-06-05T04:44:14;100691.88;;;11.56;72.21
73860;BME280;62197;51.632;13.700;2023-06-05T04:46:51;100685.66;;;11.72;70.07
73860;BME280;62197;51.632;13.700;2023-06-05T04:49:18;100686.47;;;11.84;69.06
73860;BME280;62197;51.632;13.700;2023-06-05T04:51:43;100682.94;;;11.89;67.81
73860;BME280;62197;51.632;13.700;2023-06-05T04:54:09;100692.31;;;11.99;67.33
73860;BME280;62197;51.632;13.700;2023-06-05T04:56:35;100683.03;;;12.05;66.93
73860;BME280;62197;51.632;13.700;2023-06-05T04:59:02;100682.72;;;12.18;67.20
73860;BME280;62197;51.632;13.700;2023-06-05T05:01:28;100679.06;;;12.29;67.23
73860;BME280;62197;51.632;13.700;2023-06-05T05:03:54;100682.75;;;12.46;66.68
73860;BME280;62197;51.632;13.700;2023-06-05T05:06:20;100680.25;;;12.61;66.51
73860;BME280;62197;51.632;13.700;2023-06-05T05:08:49;100689.13;;;12.80;65.43
73860;BME280;62197;51.632;13.700;2023-06-05T05:11:15;100685.53;;;12.80;65.45
73860;BME280;62197;51.632;13.700;2023-06-05T05:13:41;100690.97;;;12.91;65.32
73860;BME280;62197;51.632;13.700;2023-06-05T05:16:07;100685.88;;;13.00;65.28
73860;BME280;62197;51.632;13.700;2023-06-05T05:18:34;100687.84;;;13.16;65.32
73860;BME280;62197;51.632;13.700;2023-06-05T05:21:00;100693.19;;;13.22;63.96
73860;BME280;62197;51.632;13.700;2023-06-05T05:23:25;100687.59;;;13.17;65.94
73860;BME280;62197;51.632;13.700;2023-06-05T05:25:50;100679.19;;;13.12;65.55
73860;BME280;62197;51.632;13.700;2023-06-05T05:28:16;100688.44;;;13.18;64.56
73860;BME280;62197;51.632;13.700;2023-06-05T05:30:41;100694.09;;;13.28;64.26
73860;BME280;62197;51.632;13.700;2023-06-05T05:33:07;100704.28;;;13.39;64.69
73860;BME280;62197;51.632;13.700;2023-06-05T05:35:32;100694.47;;;13.53;63.96
73860;BME280;62197;51.632;13.700;2023-06-05T05:37:57;100698.38;;;13.52;64.30
73860;BME280;62197;51.632;13.700;2023-06-05T05:40:23;100701.66;;;13.49;63.75
73860;BME280;62197;51.632;13.700;2023-06-05T05:42:48;100695.16;;;13.60;63.58
73860;BME280;62197;51.632;13.700;2023-06-05T05:45:14;100710.34;;;13.74;63.91
73860;BME280;62197;51.632;13.700;2023-06-05T05:47:39;100691.03;;;13.84;64.16
73860;BME280;62197;51.632;13.700;2023-06-05T05:50:05;100702.72;;;14.08;63.08
73860;BME280;62197;51.632;13.700;2023-06-05T05:52:31;100700.94;;;14.40;62.67
73860;BME280;62197;51.632;13.700;2023-06-05T05:54:57;100709.72;;;14.59;61.87
73860;BME280;62197;51.632;13.700;2023-06-05T05:57:24;100710.84;;;14.89;61.67
73860;BME280;62197;51.632;13.700;2023-06-05T05:59:50;100708.84;;;15.11;59.70
73860;BME280;62197;51.632;13.700;2023-06-05T06:02:15;100706.56;;;15.40;59.74
73860;BME280;62197;51.632;13.700;2023-06-05T06:04:42;100698.91;;;15.25;58.89
73860;BME280;62197;51.632;13.700;2023-06-05T06:07:09;100718.94;;;15.22;58.46
73860;BME280;62197;51.632;13.700;2023-06-05T06:09:35;100699.47;;;15.22;58.00
73860;BME280;62197;51.632;13.700;2023-06-05T06:12:01;100713.19;;;15.34;59.23
73860;BME280;62197;51.632;13.700;2023-06-05T06:14:33;100703.03;;;15.50;57.98
73860;BME280;62197;51.632;13.700;2023-06-05T06:17:00;100710.75;;;15.79;57.22
73860;BME280;62197;51.632;13.700;2023-06-05T06:19:25;100708.09;;;16.04;56.38
73860;BME280;62197;51.632;13.700;2023-06-05T06:21:53;100710.81;;;15.94;56.10
73860;BME280;62197;51.632;13.700;2023-06-05T06:24:18;100713.16;;;16.17;56.56
73860;BME280;62197;51.632;13.700;2023-06-05T06:26:46;100707.16;;;16.51;55.75
73860;BME280;62197;51.632;13.700;2023-06-05T06:29:13;100701.09;;;16.84;54.80
73860;BME280;62197;51.632;13.700;2023-06-05T06:31:39;100706.09;;;17.17;54.06
73860;BME280;62197;51.632;13.700;2023-06-05T06:34:04;100697.47;;;17.29;53.21
73860;BME280;62197;51.632;13.700;2023-06-05T06:36:30;100707.50;;;17.20;52.49
73860;BME280;62197;51.632;13.700;2023-06-05T06:38:55;100703.31;;;17.47;52.50
73860;BME280;62197;51.632;13.700;2023-06-05T06:41:20;100707.22;;;17.66;51.27
73860;BME280;62197;51.632;13.700;2023-06-05T06:43:46;100708.91;;;17.52;49.87
73860;BME280;62197;51.632;13.700;2023-06-05T06:46:12;100707.78;;;17.68;51.17
73860;BME280;62197;51.632;13.700;2023-06-05T06:48:37;100699.41;;;17.63;49.90
73860;BME280;62197;51.632;13.700;2023-06-05T06:51:03;100709.91;;;17.96;50.05
73860;BME280;62197;51.632;13.700;2023-06-05T06:53:29;100713.09;;;18.44;49.55
73860;BME280;62197;51.632;13.700;2023-06-05T06:55:54;100705.56;;;18.44;47.94
73860;BME280;62197;51.632;13.700;2023-06-05T06:58:20;100712.06;;;18.78;47.52
73860;BME280;62197;51.632;13.700;2023-06-05T07:00:45;100703.81;;;18.97;47.09
73860;BME280;62197;51.632;13.700;2023-06-05T07:03:12;100701.06;;;18.92;45.57
73860;BME280;62197;51.632;13.700;2023-06-05T07:05:38;100709.25;;;19.17;46.42
73860;BME280;62197;51.632;13.700;2023-06-05T07:08:03;100706.41;;;19.22;44.05
73860;BME280;62197;51.632;13.700;2023-06-05T07:10:28;100710.19;;;19.41;44.76
73860;BME280;62197;51.632;13.700;2023-06-05T07:12:54;100711.38;;;19.64;43.73
73860;BME280;62197;51.632;13.700;2023-06-05T07:15:20;100713.56;;;19.67;43.13
73860;BME280;62197;51.632;13.700;2023-06-05T07:17:45;100707.81;;;19.82;42.80
73860;BME280;62197;51.632;13.700;2023-06-05T07:20:11;100710.03;;;19.85;42.01
73860;BME280;62197;51.632;13.700;2023-06-05T07:22:41;100710.78;;;19.91;39.84
73860;BME280;62197;51.632;13.700;2023-06-05T07:25:07;100709.91;;;20.42;43.58
73860;BME280;62197;51.632;13.700;2023-06-05T07:27:32;100715.53;;;20.61;40.67
73860;BME280;62197;51.632;13.700;2023-06-05T07:29:57;100715.59;;;20.56;38.28
73860;BME280;62197;51.632;13.700;2023-06-05T07:32:23;100703.53;;;20.37;36.50
73860;BME280;62197;51.632;13.700;2023-06-05T07:34:48;100708.34;;;20.55;36.64
73860;BME280;62197;51.632;13.700;2023-06-05T07:37:13;100716.75;;;20.55;37.90
73860;BME280;62197;51.632;13.700;2023-06-05T07:39:39;100712.13;;;20.64;37.02
73860;BME280;62197;51.632;13.700;2023-06-05T07:42:04;100715.53;;;20.61;34.72
73860;BME280;62197;51.632;13.700;2023-06-05T07:44:30;100715.47;;;20.66;35.19
73860;BME280;62197;51.632;13.700;2023-06-05T07:46:56;100715.19;;;20.86;34.94
73860;BME280;62197;51.632;13.700;2023-06-05T07:49:23;100712.91;;;20.88;35.70
73860;BME280;62197;51.632;13.700;2023-06-05T07:51:49;100714.78;;;20.93;35.47
73860;BME280;62197;51.632;13.700;2023-06-05T07:54:16;100711.16;;;20.92;34.82
73860;BME280;62197;51.632;13.700;2023-06-05T07:56:41;100708.13;;;21.07;35.37
73860;BME280;62197;51.632;13.700;2023-06-05T07:59:07;100709.69;;;21.32;33.54
73860;BME280;62197;51.632;13.700;2023-06-05T08:01:34;100707.59;;;21.56;34.35
73860;BME280;62197;51.632;13.700;2023-06-05T08:04:05;100702.66;;;21.80;33.27
73860;BME280;62197;51.632;13.700;2023-06-05T08:06:31;100698.81;;;21.90;33.36
73860;BME280;62197;51.632;13.700;2023-06-05T08:08:58;100700.59;;;22.13;33.23
73860;BME280;62197;51.632;13.700;2023-06-05T08:11:24;100697.66;;;22.45;32.42
73860;BME280;62197;51.632;13.700;2023-06-05T08:13:50;100692.44;;;22.66;35.12
73860;BME280;62197;51.632;13.700;2023-06-05T08:16:15;100695.72;;;22.81;32.69
73860;BME280;62197;51.632;13.700;2023-06-05T08:18:41;100695.31;;;22.88;32.42
73860;BME280;62197;51.632;13.700;2023-06-05T08:21:07;100690.31;;;22.22;33.22
73860;BME280;62197;51.632;13.700;2023-06-05T08:23:32;100686.41;;;22.45;33.80
73860;BME280;62197;51.632;13.700;2023-06-05T08:25:58;100697.03;;;22.34;33.47
73860;BME280;62197;51.632;13.700;2023-06-05T08:28:23;100689.22;;;22.72;32.47
73860;BME280;62197;51.632;13.700;2023-06-05T08:30:48;100697.88;;;22.62;31.59
73860;BME280;62197;51.632;13.700;2023-06-05T08:33:14;100693.13;;;22.85;33.82
73860;BME280;62197;51.632;13.700;2023-06-05T08:35:41;100691.72;;;23.32;31.07
73860;BME280;62197;51.632;13.700;2023-06-05T08:38:06;100689.50;;;23.73;30.27
73860;BME280;62197;51.632;13.700;2023-06-05T08:40:33;100687.25;;;23.92;27.33
73860;BME280;62197;51.632;13.700;2023-06-05T08:43:00;100696.97;;;24.08;28.48
73860;BME280;62197;51.632;13.700;2023-06-05T08:45:26;100695.47;;;24.02;28.43
73860;BME280;62197;51.632;13.700;2023-06-05T08:47:51;100693.56;;;24.28;28.96
73860;BME280;62197;51.632;13.700;2023-06-05T08:50:19;100687.69;;;24.16;28.12
73860;BME280;62197;51.632;13.700;2023-06-05T08:52:45;100687.34;;;24.09;27.58
73860;BME280;62197;51.632;13.700;2023-06-05T08:55:11;100689.50;;;24.03;27.83
73860;BME280;62197;51.632;13.700;2023-06-05T08:57:40;100682.31;;;23.97;26.47
73860;BME280;62197;51.632;13.700;2023-06-05T09:00:07;100691.25;;;24.30;26.40
73860;BME280;62197;51.632;13.700;2023-06-05T09:02:36;100688.63;;;24.42;27.58
73860;BME280;62197;51.632;13.700;2023-06-05T09:05:02;100683.66;;;24.00;28.04
73860;BME280;62197;51.632;13.700;2023-06-05T09:07:29;100674.63;;;23.81;28.38
73860;BME280;62197;51.632;13.700;2023-06-05T09:09:54;100675.81;;;23.97;30.52
73860;BME280;62197;51.632;13.700;2023-06-05T09:12:19;100672.34;;;24.31;28.96
73860;BME280;62197;51.632;13.700;2023-06-05T09:14:45;100673.53;;;24.55;27.86
73860;BME280;62197;51.632;13.700;2023-06-05T09:17:14;100674.88;;;24.66;29.42
73860;BME280;62197;51.632;13.700;2023-06-05T09:19:40;100669.38;;;24.44;27.12
73860;BME280;62197;51.632;13.700;2023-06-05T09:22:07;100671.78;;;24.20;29.19
73860;BME280;62197;51.632;13.700;2023-06-05T09:24:32;100655.34;;;24.87;28.56
73860;BME280;62197;51.632;13.700;2023-06-05T09:27:05;100659.66;;;24.84;26.90
73860;BME280;62197;51.632;13.700;2023-06-05T09:32:16;100666.97;;;23.81;32.13
73860;BME280;62197;51.632;13.700;2023-06-05T09:34:42;100668.25;;;23.45;30.64
73860;BME280;62197;51.632;13.700;2023-06-05T09:37:11;100670.81;;;23.55;29.95
73860;BME280;62197;51.632;13.700;2023-06-05T09:39:41;100661.31;;;23.73;28.85
73860;BME280;62197;51.632;13.700;2023-06-05T09:42:08;100653.44;;;23.92;29.89
73860;BME280;62197;51.632;13.700;2023-06-05T09:44:36;100663.09;;;24.56;29.28
73860;BME280;62197;51.632;13.700;2023-06-05T09:47:06;100659.75;;;24.37;28.11
73860;BME280;62197;51.632;13.700;2023-06-05T09:52:05;100650.28;;;23.93;28.31
73860;BME280;62197;51.632;13.700;2023-06-05T09:54:31;100646.56;;;24.15;27.84
73860;BME280;62197;51.632;13.700;2023-06-05T09:57:01;100641.13;;;24.27;28.36
73860;BME280;62197;51.632;13.700;2023-06-05T09:59:34;100651.28;;;23.97;27.41
73860;BME280;62197;51.632;13.700;2023-06-05T10:02:03;100649.22;;;24.11;27.48
73860;BME280;62197;51.632;13.700;2023-06-05T10:04:32;100640.25;;;24.18;27.26
73860;BME280;62197;51.632;13.700;2023-06-05T10:07:00;100635.50;;;23.88;27.11
73860;BME280;62197;51.632;13.700;2023-06-05T10:09:29;100633.69;;;23.92;26.93
73860;BME280;62197;51.632;13.700;2023-06-05T10:11:54;100632.06;;;23.99;27.04
73860;BME280;62197;51.632;13.700;2023-06-05T10:14:20;100636.94;;;24.16;27.74
73860;BME280;62197;51.632;13.700;2023-06-05T10:16:50;100630.28;;;24.12;27.79
73860;BME280;62197;51.632;13.700;2023-06-05T10:19:20;100624.75;;;24.46;29.18
73860;BME280;62197;51.632;13.700;2023-06-05T10:21:49;100622.78;;;24.72;27.11
73860;BME280;62197;51.632;13.700;2023-06-05T10:24:19;100626.41;;;25.16;26.66
73860;BME280;62197;51.632;13.700;2023-06-05T10:38:17;100615.75;;;25.30;26.86
73860;BME280;62197;51.632;13.700;2023-06-05T10:40:57;100619.06;;;25.49;26.44
73860;BME280;62197;51.632;13.700;2023-06-05T10:43:31;100610.72;;;25.90;26.07
73860;BME280;62197;51.632;13.700;2023-06-05T10:46:02;100617.66;;;25.72;25.41
73860;BME280;62197;51.632;13.700;2023-06-05T10:51:42;100617.50;;;26.06;27.22
73860;BME280;62197;51.632;13.700;2023-06-05T10:54:13;100624.56;;;26.50;26.54
73860;BME280;62197;51.632;13.700;2023-06-05T10:57:01;100623.66;;;26.58;26.82
73860;BME280;62197;51.632;13.700;2023-06-05T10:59:39;100607.09;;;25.89;25.19
73860;BME280;62197;51.632;13.700;2023-06-05T11:07:17;100604.72;;;28.01;23.00
73860;BME280;62197;51.632;13.700;2023-06-05T11:15:05;100608.03;;;28.27;22.34
73860;BME280;62197;51.632;13.700;2023-06-05T11:17:32;100595.50;;;29.20;21.56
73860;BME280;62197;51.632;13.700;2023-06-05T11:19:59;100597.41;;;30.21;19.75
73860;BME280;62197;51.632;13.700;2023-06-05T11:22:25;100591.53;;;30.14;21.99
73860;BME280;62197;51.632;13.700;2023-06-05T11:27:46;100586.13;;;31.36;20.05
73860;BME280;62197;51.632;13.700;2023-06-05T11:30:13;100596.31;;;31.79;19.93
73860;BME280;62197;51.632;13.700;2023-06-05T11:32:38;100587.06;;;31.85;19.54
73860;BME280;62197;51.632;13.700;2023-06-05T11:35:04;100597.13;;;31.15;19.08
73860;BME280;62197;51.632;13.700;2023-06-05T11:37:30;100573.44;;;29.60;21.67
73860;BME280;62197;51.632;13.700;2023-06-05T11:39:58;100570.41;;;30.31;20.95
73860;BME280;62197;51.632;13.700;2023-06-05T11:42:23;100586.25;;;31.01;20.54
73860;BME280;62197;51.632;13.700;2023-06-05T11:44:48;100582.81;;;30.39;21.45
73860;BME280;62197;51.632;13.700;2023-06-05T11:47:27;100583.91;;;31.45;20.12
73860;BME280;62197;51.632;13.700;2023-06-05T11:50:12;100583.69;;;29.92;20.11
73860;BME280;62197;51.632;13.700;2023-06-05T11:52:38;100577.22;;;29.95;20.15
73860;BME280;62197;51.632;13.700;2023-06-05T11:55:17;100579.09;;;31.11;19.31
73860;BME280;62197;51.632;13.700;2023-06-05T11:57:47;100567.81;;;30.42;19.15
73860;BME280;62197;51.632;13.700;2023-06-05T12:00:14;100566.84;;;30.03;20.04
73860;BME280;62197;51.632;13.700;2023-06-05T12:02:41;100559.47;;;30.33;22.13
73860;BME280;62197;51.632;13.700;2023-06-05T12:05:08;100569.56;;;31.87;19.58
73860;BME280;62197;51.632;13.700;2023-06-05T12:07:34;100550.69;;;32.54;18.51
73860;BME280;62197;51.632;13.700;2023-06-05T12:10:06;100557.84;;;33.00;18.29
73860;BME280;62197;51.632;13.700;2023-06-05T12:12:33;100543.84;;;30.81;19.90
73860;BME280;62197;51.632;13.700;2023-06-05T12:15:19;100547.72;;;31.49;19.00
73860;BME280;62197;51.632;13.700;2023-06-05T12:17:57;100539.81;;;32.96;17.99
73860;BME280;62197;51.632;13.700;2023-06-05T12:20:25;100538.03;;;33.54;18.34
73860;BME280;62197;51.632;13.700;2023-06-05T12:22:52;100535.84;;;33.85;17.02
73860;BME280;62197;51.632;13.700;2023-06-05T12:25:18;100527.66;;;34.34;16.02
73860;BME280;62197;51.632;13.700;2023-06-05T12:27:44;100528.00;;;34.25;15.96
73860;BME280;62197;51.632;13.700;2023-06-05T12:30:11;100521.53;;;33.44;16.96
73860;BME280;62197;51.632;13.700;2023-06-05T12:32:37;100517.22;;;34.05;15.95
73860;BME280;62197;51.632;13.700;2023-06-05T12:35:04;100515.50;;;34.54;15.83
73860;BME280;62197;51.632;13.700;2023-06-05T12:37:31;100511.22;;;33.77;16.37
73860;BME280;62197;51.632;13.700;2023-06-05T12:40:00;100527.81;;;33.97;17.40
73860;BME280;62197;51.632;13.700;2023-06-05T12:42:26;100525.81;;;32.58;17.69
73860;BME280;62197;51.632;13.700;2023-06-05T12:44:53;100515.59;;;32.57;16.30
73860;BME280;62197;51.632;13.700;2023-06-05T12:47:18;100503.78;;;31.35;17.69
73860;BME280;62197;51.632;13.700;2023-06-05T12:49:43;100517.56;;;31.74;20.44
73860;BME280;62197;51.632;13.700;2023-06-05T12:52:09;100515.56;;;31.52;17.79
73860;BME280;62197;51.632;13.700;2023-06-05T12:54:37;100514.13;;;32.70;17.66
73860;BME280;62197;51.632;13.700;2023-06-05T12:57:04;100503.94;;;32.43;18.15
73860;BME280;62197;51.632;13.700;2023-06-05T12:59:30;100499.41;;;31.37;19.65
73860;BME280;62197;51.632;13.700;2023-06-05T13:01:56;100498.88;;;31.32;20.18
73860;BME280;62197;51.632;13.700;2023-06-05T13:04:21;100494.28;;;31.04;19.68
73860;BME280;62197;51.632;13.700;2023-06-05T13:06:46;100488.19;;;31.29;18.41
73860;BME280;62197;51.632;13.700;2023-06-05T13:09:12;100479.47;;;33.45;18.33
73860;BME280;62197;51.632;13.700;2023-06-05T13:11:37;100482.38;;;32.19;17.39
73860;BME280;62197;51.632;13.700;2023-06-05T13:14:02;100472.97;;;33.99;16.61
73860;BME280;62197;51.632;13.700;2023-06-05T13:16:28;100477.41;;;33.45;15.59
73860;BME280;62197;51.632;13.700;2023-06-05T13:18:53;100457.81;;;33.47;15.61